sensor_id;sensor_type;location;lat;lon;timestamp;P1;durP1;ratioP1;P2;durP2;ratioP2
83695;SDS011;73677;54.530;18.484;2023-11-22T00:01:25;21.45;;;7.28;;
83695;SDS011;73677;54.530;18.484;2023-11-22T00:03:55;21.30;;;8.30;;
83695;SDS011;73677;54.530;18.484;2023-11-22T00:06:25;14.63;;;5.85;;
83695;SDS011;73677;54.530;18.484;2023-11-22T00:08:54;15.38;;;6.65;;
83695;SDS011;73677;54.530;18.484;2023-11-22T00:11:23;13.43;;;5.80;;
83695;SDS011;73677;54.530;18.484;2023-11-22T00:13:53;23.70;;;9.45;;
83695;SDS011;73677;54.530;18.484;2023-11-22T00:16:26;12.10;;;6.05;;
83695;SDS011;73677;54.530;18.484;2023-11-22T00:18:55;9.38;;;4.25;;
83695;SDS011;73677;54.530;18.484;2023-11-22T00:21:24;10.57;;;4.47;;
83695;SDS011;73677;54.530;18.484;2023-11-22T00:23:54;13.55;;;4.93;;
83695;SDS011;73677;54.530;18.484;2023-11-22T00:26:23;11.40;;;6.05;;
83695;SDS011;73677;54.530;18.484;2023-11-22T00:28:53;18.55;;;9.02;;
83695;SDS011;73677;54.530;18.484;2023-11-22T00:31:22;9.40;;;4.97;;
83695;SDS011;73677;54.530;18.484;2023-11-22T00:33:53;10.95;;;5.47;;
83695;SDS011;73677;54.530;18.484;2023-11-22T00:36:23;12.10;;;4.60;;
83695;SDS011;73677;54.530;18.484;2023-11-22T00:38:55;9.75;;;4.57;;
83695;SDS011;73677;54.530;18.484;2023-11-22T00:41:24;9.48;;;5.40;;
83695;SDS011;73677;54.530;18.484;2023-11-22T00:43:59;11.88;;;5.68;;
83695;SDS011;73677;54.530;18.484;2023-11-22T00:46:28;17.77;;;6.60;;
83695;SDS011;73677;54.530;18.484;2023-11-22T00:49:04;9.75;;;5.03;;
83695;SDS011;73677;54.530;18.484;2023-11-22T00:51:33;14.77;;;5.78;;
83695;SDS011;73677;54.530;18.484;2023-11-22T00:54:03;9.50;;;4.35;;
83695;SDS011;73677;54.530;18.484;2023-11-22T00:56:32;11.75;;;5.22;;
83695;SDS011;73677;54.530;18.484;2023-11-22T00:59:02;9.93;;;4.60;;
83695;SDS011;73677;54.530;18.484;2023-11-22T01:01:31;10.75;;;5.20;;
83695;SDS011;73677;54.530;18.484;2023-11-22T01:04:03;10.45;;;5.90;;
83695;SDS011;73677;54.530;18.484;2023-11-22T01:06:34;8.40;;;4.85;;
83695;SDS011;73677;54.530;18.484;2023-11-22T01:11:36;14.43;;;6.22;;
83695;SDS011;73677;54.530;18.484;2023-11-22T01:14:05;15.98;;;6.72;;
83695;SDS011;73677;54.530;18.484;2023-11-22T01:16:34;15.50;;;7.65;;
83695;SDS011;73677;54.530;18.484;2023-11-22T01:19:06;15.85;;;7.10;;
83695;SDS011;73677;54.530;18.484;2023-11-22T01:21:39;16.63;;;7.35;;
83695;SDS011;73677;54.530;18.484;2023-11-22T01:24:09;13.77;;;6.07;;
83695;SDS011;73677;54.530;18.484;2023-11-22T01:26:39;13.75;;;6.25;;
83695;SDS011;73677;54.530;18.484;2023-11-22T01:31:39;18.52;;;7.88;;
83695;SDS011;73677;54.530;18.484;2023-11-22T01:34:11;36.42;;;16.27;;
83695;SDS011;73677;54.530;18.484;2023-11-22T01:36:41;18.67;;;8.40;;
83695;SDS011;73677;54.530;18.484;2023-11-22T01:39:12;15.32;;;5.30;;
83695;SDS011;73677;54.530;18.484;2023-11-22T01:41:44;17.45;;;6.45;;
83695;SDS011;73677;54.530;18.484;2023-11-22T01:44:13;14.63;;;6.90;;
83695;SDS011;73677;54.530;18.484;2023-11-22T01:46:42;18.98;;;10.52;;
83695;SDS011;73677;54.530;18.484;2023-11-22T01:49:13;12.60;;;4.70;;
83695;SDS011;73677;54.530;18.484;2023-11-22T01:51:42;17.73;;;7.18;;
83695;SDS011;73677;54.530;18.484;2023-11-22T01:54:15;12.30;;;6.25;;
83695;SDS011;73677;54.530;18.484;2023-11-22T01:56:47;10.00;;;5.30;;
83695;SDS011;73677;54.530;18.484;2023-11-22T01:59:17;15.88;;;7.38;;
83695;SDS011;73677;54.530;18.484;2023-11-22T02:01:48;13.52;;;5.88;;
83695;SDS011;73677;54.530;18.484;2023-11-22T02:04:22;14.38;;;6.63;;
83695;SDS011;73677;54.530;18.484;2023-11-22T02:06:54;11.02;;;6.10;;
83695;SDS011;73677;54.530;18.484;2023-11-22T02:09:24;9.75;;;4.93;;
83695;SDS011;73677;54.530;18.484;2023-11-22T02:11:53;13.07;;;4.97;;
83695;SDS011;73677;54.530;18.484;2023-11-22T02:14:23;11.70;;;5.32;;
83695;SDS011;73677;54.530;18.484;2023-11-22T02:16:52;13.57;;;6.47;;
83695;SDS011;73677;54.530;18.484;2023-11-22T02:19:24;12.57;;;5.95;;
83695;SDS011;73677;54.530;18.484;2023-11-22T02:21:53;17.52;;;6.47;;
83695;SDS011;73677;54.530;18.484;2023-11-22T02:24:24;14.93;;;6.65;;
83695;SDS011;73677;54.530;18.484;2023-11-22T02:26:54;16.58;;;6.43;;
83695;SDS011;73677;54.530;18.484;2023-11-22T02:29:24;12.63;;;5.97;;
83695;SDS011;73677;54.530;18.484;2023-11-22T02:31:53;9.90;;;5.05;;
83695;SDS011;73677;54.530;18.484;2023-11-22T02:34:23;11.65;;;5.13;;
83695;SDS011;73677;54.530;18.484;2023-11-22T02:36:53;11.13;;;5.43;;
83695;SDS011;73677;54.530;18.484;2023-11-22T02:39:34;9.93;;;5.10;;
83695;SDS011;73677;54.530;18.484;2023-11-22T02:42:14;13.32;;;5.63;;
83695;SDS011;73677;54.530;18.484;2023-11-22T02:44:43;12.82;;;4.80;;
83695;SDS011;73677;54.530;18.484;2023-11-22T02:47:14;12.15;;;5.47;;
83695;SDS011;73677;54.530;18.484;2023-11-22T02:49:47;10.40;;;4.90;;
83695;SDS011;73677;54.530;18.484;2023-11-22T02:52:18;8.88;;;5.32;;
83695;SDS011;73677;54.530;18.484;2023-11-22T02:54:54;10.45;;;4.90;;
83695;SDS011;73677;54.530;18.484;2023-11-22T02:57:29;11.55;;;5.38;;
83695;SDS011;73677;54.530;18.484;2023-11-22T03:00:00;11.80;;;5.28;;
83695;SDS011;73677;54.530;18.484;2023-11-22T03:02:31;11.95;;;5.70;;
83695;SDS011;73677;54.530;18.484;2023-11-22T03:05:00;10.68;;;4.80;;
83695;SDS011;73677;54.530;18.484;2023-11-22T03:07:30;11.88;;;5.75;;
83695;SDS011;73677;54.530;18.484;2023-11-22T03:10:01;11.02;;;5.20;;
83695;SDS011;73677;54.530;18.484;2023-11-22T03:12:30;12.00;;;5.88;;
83695;SDS011;73677;54.530;18.484;2023-11-22T03:15:00;10.73;;;5.63;;
83695;SDS011;73677;54.530;18.484;2023-11-22T03:17:30;12.65;;;6.28;;
83695;SDS011;73677;54.530;18.484;2023-11-22T03:20:02;11.05;;;5.63;;
83695;SDS011;73677;54.530;18.484;2023-11-22T03:22:35;13.15;;;5.32;;
83695;SDS011;73677;54.530;18.484;2023-11-22T03:27:37;10.20;;;4.70;;
83695;SDS011;73677;54.530;18.484;2023-11-22T03:30:07;11.43;;;5.40;;
83695;SDS011;73677;54.530;18.484;2023-11-22T03:32:39;11.20;;;5.82;;
83695;SDS011;73677;54.530;18.484;2023-11-22T03:35:09;12.05;;;5.35;;
83695;SDS011;73677;54.530;18.484;2023-11-22T03:37:39;13.95;;;5.70;;
83695;SDS011;73677;54.530;18.484;2023-11-22T03:40:11;11.75;;;5.53;;
83695;SDS011;73677;54.530;18.484;2023-11-22T03:42:41;11.43;;;5.60;;
83695;SDS011;73677;54.530;18.484;2023-11-22T03:45:11;13.68;;;5.30;;
83695;SDS011;73677;54.530;18.484;2023-11-22T03:47:43;7.97;;;4.93;;
83695;SDS011;73677;54.530;18.484;2023-11-22T03:50:12;9.68;;;4.97;;
83695;SDS011;73677;54.530;18.484;2023-11-22T03:52:42;10.30;;;4.60;;
83695;SDS011;73677;54.530;18.484;2023-11-22T03:55:13;9.13;;;4.97;;
83695;SDS011;73677;54.530;18.484;2023-11-22T03:57:43;8.45;;;4.38;;
83695;SDS011;73677;54.530;18.484;2023-11-22T04:00:16;13.75;;;5.93;;
83695;SDS011;73677;54.530;18.484;2023-11-22T04:02:47;14.43;;;5.82;;
83695;SDS011;73677;54.530;18.484;2023-11-22T04:05:17;13.27;;;5.63;;
83695;SDS011;73677;54.530;18.484;2023-11-22T04:07:49;9.70;;;5.10;;
83695;SDS011;73677;54.530;18.484;2023-11-22T04:10:20;14.43;;;6.72;;
83695;SDS011;73677;54.530;18.484;2023-11-22T04:12:49;11.25;;;5.22;;
83695;SDS011;73677;54.530;18.484;2023-11-22T04:15:20;8.00;;;4.47;;
83695;SDS011;73677;54.530;18.484;2023-11-22T04:17:49;11.68;;;4.45;;
83695;SDS011;73677;54.530;18.484;2023-11-22T04:20:22;9.75;;;4.75;;
83695;SDS011;73677;54.530;18.484;2023-11-22T04:22:51;7.13;;;3.90;;
83695;SDS011;73677;54.530;18.484;2023-11-22T04:25:22;8.57;;;4.80;;
83695;SDS011;73677;54.530;18.484;2023-11-22T04:27:53;9.73;;;4.60;;
83695;SDS011;73677;54.530;18.484;2023-11-22T04:32:51;10.07;;;4.40;;
83695;SDS011;73677;54.530;18.484;2023-11-22T04:35:21;8.27;;;4.05;;
83695;SDS011;73677;54.530;18.484;2023-11-22T04:37:50;9.85;;;4.60;;
83695;SDS011;73677;54.530;18.484;2023-11-22T04:42:51;6.68;;;3.40;;
83695;SDS011;73677;54.530;18.484;2023-11-22T04:45:20;7.00;;;3.95;;
83695;SDS011;73677;54.530;18.484;2023-11-22T04:47:50;8.55;;;4.28;;
83695;SDS011;73677;54.530;18.484;2023-11-22T04:50:19;9.90;;;5.38;;
83695;SDS011;73677;54.530;18.484;2023-11-22T04:52:48;8.40;;;4.10;;
83695;SDS011;73677;54.530;18.484;2023-11-22T04:57:49;8.95;;;4.22;;
83695;SDS011;73677;54.530;18.484;2023-11-22T05:00:19;8.15;;;4.15;;
83695;SDS011;73677;54.530;18.484;2023-11-22T05:02:50;6.63;;;3.83;;
83695;SDS011;73677;54.530;18.484;2023-11-22T05:05:22;6.45;;;3.22;;
83695;SDS011;73677;54.530;18.484;2023-11-22T05:07:51;6.15;;;3.63;;
83695;SDS011;73677;54.530;18.484;2023-11-22T05:10:21;6.65;;;3.67;;
83695;SDS011;73677;54.530;18.484;2023-11-22T05:12:52;10.82;;;5.07;;
83695;SDS011;73677;54.530;18.484;2023-11-22T05:15:27;11.80;;;6.35;;
83695;SDS011;73677;54.530;18.484;2023-11-22T05:17:57;9.07;;;4.95;;
83695;SDS011;73677;54.530;18.484;2023-11-22T05:20:30;11.57;;;5.75;;
83695;SDS011;73677;54.530;18.484;2023-11-22T05:23:00;9.13;;;4.65;;
83695;SDS011;73677;54.530;18.484;2023-11-22T05:25:30;7.70;;;4.20;;
83695;SDS011;73677;54.530;18.484;2023-11-22T05:28:03;11.35;;;4.97;;
83695;SDS011;73677;54.530;18.484;2023-11-22T05:30:33;10.68;;;5.05;;
83695;SDS011;73677;54.530;18.484;2023-11-22T05:33:05;9.30;;;4.85;;
83695;SDS011;73677;54.530;18.484;2023-11-22T05:35:36;8.07;;;4.47;;
83695;SDS011;73677;54.530;18.484;2023-11-22T05:38:06;9.48;;;3.95;;
83695;SDS011;73677;54.530;18.484;2023-11-22T05:40:36;10.68;;;5.28;;
83695;SDS011;73677;54.530;18.484;2023-11-22T05:43:07;12.88;;;5.40;;
83695;SDS011;73677;54.530;18.484;2023-11-22T05:45:39;10.10;;;4.82;;
83695;SDS011;73677;54.530;18.484;2023-11-22T05:48:09;9.90;;;4.53;;
83695;SDS011;73677;54.530;18.484;2023-11-22T05:50:44;7.15;;;3.88;;
83695;SDS011;73677;54.530;18.484;2023-11-22T05:53:16;10.75;;;5.40;;
83695;SDS011;73677;54.530;18.484;2023-11-22T05:55:47;9.32;;;4.57;;
83695;SDS011;73677;54.530;18.484;2023-11-22T05:58:24;10.95;;;5.70;;
83695;SDS011;73677;54.530;18.484;2023-11-22T06:00:55;13.43;;;5.72;;
83695;SDS011;73677;54.530;18.484;2023-11-22T06:03:25;12.43;;;5.60;;
83695;SDS011;73677;54.530;18.484;2023-11-22T06:05:59;9.60;;;4.25;;
83695;SDS011;73677;54.530;18.484;2023-11-22T06:08:29;12.70;;;6.32;;
83695;SDS011;73677;54.530;18.484;2023-11-22T06:10:59;13.43;;;5.63;;
83695;SDS011;73677;54.530;18.484;2023-11-22T06:13:35;14.55;;;6.22;;
83695;SDS011;73677;54.530;18.484;2023-11-22T06:16:08;13.32;;;6.32;;
83695;SDS011;73677;54.530;18.484;2023-11-22T06:18:38;11.43;;;5.53;;
83695;SDS011;73677;54.530;18.484;2023-11-22T06:21:09;18.67;;;8.18;;
83695;SDS011;73677;54.530;18.484;2023-11-22T06:23:39;11.68;;;5.18;;
83695;SDS011;73677;54.530;18.484;2023-11-22T06:26:11;7.85;;;4.60;;
83695;SDS011;73677;54.530;18.484;2023-11-22T06:28:46;19.20;;;7.32;;
83695;SDS011;73677;54.530;18.484;2023-11-22T06:31:19;15.93;;;6.65;;
83695;SDS011;73677;54.530;18.484;2023-11-22T06:33:49;12.73;;;5.70;;
83695;SDS011;73677;54.530;18.484;2023-11-22T06:36:20;8.25;;;4.45;;
83695;SDS011;73677;54.530;18.484;2023-11-22T06:38:53;12.95;;;6.32;;
83695;SDS011;73677;54.530;18.484;2023-11-22T06:41:38;12.63;;;5.95;;
83695;SDS011;73677;54.530;18.484;2023-11-22T06:44:19;12.27;;;5.25;;
83695;SDS011;73677;54.530;18.484;2023-11-22T06:46:49;9.75;;;5.22;;
83695;SDS011;73677;54.530;18.484;2023-11-22T06:49:19;7.97;;;4.18;;
83695;SDS011;73677;54.530;18.484;2023-11-22T06:51:55;10.85;;;4.95;;
83695;SDS011;73677;54.530;18.484;2023-11-22T06:55:00;7.55;;;4.07;;
83695;SDS011;73677;54.530;18.484;2023-11-22T07:00:05;9.35;;;3.67;;
83695;SDS011;73677;54.530;18.484;2023-11-22T07:02:37;13.00;;;4.93;;
83695;SDS011;73677;54.530;18.484;2023-11-22T07:05:07;22.70;;;11.80;;
83695;SDS011;73677;54.530;18.484;2023-11-22T07:07:38;16.67;;;6.95;;
83695;SDS011;73677;54.530;18.484;2023-11-22T07:10:08;12.15;;;5.25;;
83695;SDS011;73677;54.530;18.484;2023-11-22T07:12:45;15.98;;;7.05;;
83695;SDS011;73677;54.530;18.484;2023-11-22T07:15:16;18.75;;;9.02;;
83695;SDS011;73677;54.530;18.484;2023-11-22T07:17:46;18.30;;;7.57;;
83695;SDS011;73677;54.530;18.484;2023-11-22T07:20:15;14.00;;;6.05;;
83695;SDS011;73677;54.530;18.484;2023-11-22T07:22:48;20.58;;;10.50;;
83695;SDS011;73677;54.530;18.484;2023-11-22T07:25:23;22.67;;;10.93;;
83695;SDS011;73677;54.530;18.484;2023-11-22T07:27:54;18.50;;;9.15;;
83695;SDS011;73677;54.530;18.484;2023-11-22T07:30:29;23.13;;;11.50;;
83695;SDS011;73677;54.530;18.484;2023-11-22T07:33:01;14.82;;;7.50;;
83695;SDS011;73677;54.530;18.484;2023-11-22T07:35:33;14.07;;;6.97;;
83695;SDS011;73677;54.530;18.484;2023-11-22T07:38:03;13.88;;;7.25;;
83695;SDS011;73677;54.530;18.484;2023-11-22T07:40:32;25.55;;;10.55;;
83695;SDS011;73677;54.530;18.484;2023-11-22T07:43:02;37.25;;;18.00;;
83695;SDS011;73677;54.530;18.484;2023-11-22T07:48:03;97.00;;;33.35;;
83695;SDS011;73677;54.530;18.484;2023-11-22T07:50:33;79.65;;;26.90;;
83695;SDS011;73677;54.530;18.484;2023-11-22T07:53:03;98.32;;;35.22;;
83695;SDS011;73677;54.530;18.484;2023-11-22T07:55:36;89.93;;;35.25;;
83695;SDS011;73677;54.530;18.484;2023-11-22T07:58:06;67.10;;;23.67;;
83695;SDS011;73677;54.530;18.484;2023-11-22T08:00:37;54.03;;;20.23;;
83695;SDS011;73677;54.530;18.484;2023-11-22T08:03:10;76.82;;;27.40;;
83695;SDS011;73677;54.530;18.484;2023-11-22T08:05:43;46.33;;;19.95;;
83695;SDS011;73677;54.530;18.484;2023-11-22T08:08:16;58.67;;;24.98;;
83695;SDS011;73677;54.530;18.484;2023-11-22T08:10:49;39.00;;;16.52;;
83695;SDS011;73677;54.530;18.484;2023-11-22T08:13:21;28.55;;;11.60;;
83695;SDS011;73677;54.530;18.484;2023-11-22T08:15:52;20.95;;;10.35;;
83695;SDS011;73677;54.530;18.484;2023-11-22T08:18:22;20.83;;;11.25;;
83695;SDS011;73677;54.530;18.484;2023-11-22T08:20:54;16.08;;;8.70;;
83695;SDS011;73677;54.530;18.484;2023-11-22T08:23:26;20.08;;;9.35;;
83695;SDS011;73677;54.530;18.484;2023-11-22T08:25:56;17.83;;;10.60;;
83695;SDS011;73677;54.530;18.484;2023-11-22T08:28:25;13.20;;;7.07;;
83695;SDS011;73677;54.530;18.484;2023-11-22T08:30:57;15.30;;;6.85;;
83695;SDS011;73677;54.530;18.484;2023-11-22T08:33:28;13.00;;;7.65;;
83695;SDS011;73677;54.530;18.484;2023-11-22T08:35:57;13.75;;;6.40;;
83695;SDS011;73677;54.530;18.484;2023-11-22T08:38:28;12.18;;;6.20;;
83695;SDS011;73677;54.530;18.484;2023-11-22T08:43:27;23.67;;;10.63;;
83695;SDS011;73677;54.530;18.484;2023-11-22T08:46:03;18.85;;;8.57;;
83695;SDS011;73677;54.530;18.484;2023-11-22T08:48:41;25.40;;;10.75;;
83695;SDS011;73677;54.530;18.484;2023-11-22T08:51:10;13.73;;;6.57;;
83695;SDS011;73677;54.530;18.484;2023-11-22T08:53:47;21.48;;;9.88;;
83695;SDS011;73677;54.530;18.484;2023-11-22T08:56:16;15.90;;;8.93;;
83695;SDS011;73677;54.530;18.484;2023-11-22T08:58:52;22.33;;;10.45;;
83695;SDS011;73677;54.530;18.484;2023-11-22T09:01:24;31.70;;;17.70;;
83695;SDS011;73677;54.530;18.484;2023-11-22T09:03:54;21.10;;;13.68;;
83695;SDS011;73677;54.530;18.484;2023-11-22T09:06:24;14.65;;;6.75;;
83695;SDS011;73677;54.530;18.484;2023-11-22T09:08:54;27.35;;;16.30;;
83695;SDS011;73677;54.530;18.484;2023-11-22T09:11:24;13.93;;;9.32;;
83695;SDS011;73677;54.530;18.484;2023-11-22T09:13:53;6.95;;;4.22;;
83695;SDS011;73677;54.530;18.484;2023-11-22T09:16:25;9.70;;;6.30;;
83695;SDS011;73677;54.530;18.484;2023-11-22T09:18:54;7.97;;;5.20;;
83695;SDS011;73677;54.530;18.484;2023-11-22T09:21:24;10.65;;;6.22;;
83695;SDS011;73677;54.530;18.484;2023-11-22T09:23:54;12.50;;;6.63;;
83695;SDS011;73677;54.530;18.484;2023-11-22T09:26:23;7.13;;;4.18;;
83695;SDS011;73677;54.530;18.484;2023-11-22T09:28:55;6.15;;;3.60;;
83695;SDS011;73677;54.530;18.484;2023-11-22T09:31:25;4.97;;;3.17;;
83695;SDS011;73677;54.530;18.484;2023-11-22T09:33:56;5.13;;;3.22;;
83695;SDS011;73677;54.530;18.484;2023-11-22T09:36:25;5.25;;;2.60;;
83695;SDS011;73677;54.530;18.484;2023-11-22T09:38:55;5.65;;;3.10;;
83695;SDS011;73677;54.530;18.484;2023-11-22T09:41:24;5.57;;;2.80;;
83695;SDS011;73677;54.530;18.484;2023-11-22T09:43:54;7.60;;;3.95;;
83695;SDS011;73677;54.530;18.484;2023-11-22T09:46:23;8.77;;;3.80;;
83695;SDS011;73677;54.530;18.484;2023-11-22T09:48:54;4.70;;;2.97;;
83695;SDS011;73677;54.530;18.484;2023-11-22T09:51:24;5.38;;;3.45;;
83695;SDS011;73677;54.530;18.484;2023-11-22T09:53:59;4.97;;;2.63;;
83695;SDS011;73677;54.530;18.484;2023-11-22T09:56:34;4.35;;;2.80;;
83695;SDS011;73677;54.530;18.484;2023-11-22T09:59:05;5.78;;;2.88;;
83695;SDS011;73677;54.530;18.484;2023-11-22T10:01:35;4.32;;;2.67;;
83695;SDS011;73677;54.530;18.484;2023-11-22T10:04:06;4.10;;;2.70;;
83695;SDS011;73677;54.530;18.484;2023-11-22T10:06:36;3.70;;;2.22;;
83695;SDS011;73677;54.530;18.484;2023-11-22T10:09:08;5.00;;;2.65;;
83695;SDS011;73677;54.530;18.484;2023-11-22T10:11:38;5.70;;;2.80;;
83695;SDS011;73677;54.530;18.484;2023-11-22T10:14:12;6.55;;;3.22;;
83695;SDS011;73677;54.530;18.484;2023-11-22T10:16:59;7.30;;;2.80;;
83695;SDS011;73677;54.530;18.484;2023-11-22T10:19:31;6.60;;;3.45;;
83695;SDS011;73677;54.530;18.484;2023-11-22T10:22:02;4.85;;;2.88;;
83695;SDS011;73677;54.530;18.484;2023-11-22T10:24:35;6.10;;;2.97;;
83695;SDS011;73677;54.530;18.484;2023-11-22T10:27:04;5.93;;;2.83;;
83695;SDS011;73677;54.530;18.484;2023-11-22T10:29:41;6.43;;;3.35;;
83695;SDS011;73677;54.530;18.484;2023-11-22T10:32:15;8.75;;;3.45;;
83695;SDS011;73677;54.530;18.484;2023-11-22T10:34:49;7.65;;;3.60;;
83695;SDS011;73677;54.530;18.484;2023-11-22T10:37:19;6.60;;;2.97;;
83695;SDS011;73677;54.530;18.484;2023-11-22T10:39:50;10.52;;;5.35;;
83695;SDS011;73677;54.530;18.484;2023-11-22T10:42:19;7.07;;;3.10;;
83695;SDS011;73677;54.530;18.484;2023-11-22T10:44:51;8.90;;;4.10;;
83695;SDS011;73677;54.530;18.484;2023-11-22T10:47:23;4.82;;;2.67;;
83695;SDS011;73677;54.530;18.484;2023-11-22T10:49:59;5.28;;;2.88;;
83695;SDS011;73677;54.530;18.484;2023-11-22T10:52:28;4.75;;;2.63;;
83695;SDS011;73677;54.530;18.484;2023-11-22T10:55:01;4.38;;;2.25;;
83695;SDS011;73677;54.530;18.484;2023-11-22T10:57:31;4.65;;;2.88;;
83695;SDS011;73677;54.530;18.484;2023-11-22T11:00:03;4.45;;;2.33;;
83695;SDS011;73677;54.530;18.484;2023-11-22T11:02:36;4.18;;;2.40;;
83695;SDS011;73677;54.530;18.484;2023-11-22T11:05:20;3.50;;;2.42;;
83695;SDS011;73677;54.530;18.484;2023-11-22T11:07:57;3.45;;;2.25;;
83695;SDS011;73677;54.530;18.484;2023-11-22T11:10:30;4.88;;;2.63;;
83695;SDS011;73677;54.530;18.484;2023-11-22T11:12:59;7.20;;;3.53;;
83695;SDS011;73677;54.530;18.484;2023-11-22T11:15:30;4.82;;;2.63;;
83695;SDS011;73677;54.530;18.484;2023-11-22T11:18:02;4.55;;;2.72;;
83695;SDS011;73677;54.530;18.484;2023-11-22T11:20:37;3.58;;;2.70;;
83695;SDS011;73677;54.530;18.484;2023-11-22T11:23:14;5.28;;;3.25;;
83695;SDS011;73677;54.530;18.484;2023-11-22T11:25:44;4.13;;;2.50;;
83695;SDS011;73677;54.530;18.484;2023-11-22T11:30:45;5.60;;;2.85;;
83695;SDS011;73677;54.530;18.484;2023-11-22T11:33:17;5.65;;;2.50;;
83695;SDS011;73677;54.530;18.484;2023-11-22T11:35:49;5.25;;;2.60;;
83695;SDS011;73677;54.530;18.484;2023-11-22T11:38:30;6.75;;;3.10;;
83695;SDS011;73677;54.530;18.484;2023-11-22T11:41:06;5.28;;;3.28;;
83695;SDS011;73677;54.530;18.484;2023-11-22T11:43:40;3.70;;;2.33;;
83695;SDS011;73677;54.530;18.484;2023-11-22T11:46:18;6.82;;;2.85;;
83695;SDS011;73677;54.530;18.484;2023-11-22T11:48:57;5.40;;;3.25;;
83695;SDS011;73677;54.530;18.484;2023-11-22T11:51:29;4.20;;;2.50;;
83695;SDS011;73677;54.530;18.484;2023-11-22T11:53:59;5.72;;;2.83;;
83695;SDS011;73677;54.530;18.484;2023-11-22T11:56:32;5.00;;;2.80;;
83695;SDS011;73677;54.530;18.484;2023-11-22T11:59:08;4.18;;;2.38;;
83695;SDS011;73677;54.530;18.484;2023-11-22T12:01:41;6.53;;;3.47;;
83695;SDS011;73677;54.530;18.484;2023-11-22T12:04:16;6.40;;;3.20;;
83695;SDS011;73677;54.530;18.484;2023-11-22T12:06:50;5.57;;;3.15;;
83695;SDS011;73677;54.530;18.484;2023-11-22T12:09:24;6.15;;;3.53;;
83695;SDS011;73677;54.530;18.484;2023-11-22T12:11:59;6.80;;;3.65;;
83695;SDS011;73677;54.530;18.484;2023-11-22T12:14:30;8.63;;;4.00;;
83695;SDS011;73677;54.530;18.484;2023-11-22T12:17:00;7.82;;;4.18;;
83695;SDS011;73677;54.530;18.484;2023-11-22T12:19:29;7.43;;;3.65;;
83695;SDS011;73677;54.530;18.484;2023-11-22T12:22:02;9.45;;;4.60;;
83695;SDS011;73677;54.530;18.484;2023-11-22T12:24:37;11.98;;;5.10;;
83695;SDS011;73677;54.530;18.484;2023-11-22T12:27:06;7.40;;;3.80;;
83695;SDS011;73677;54.530;18.484;2023-11-22T12:29:38;8.00;;;4.53;;
83695;SDS011;73677;54.530;18.484;2023-11-22T12:32:09;8.15;;;4.80;;
83695;SDS011;73677;54.530;18.484;2023-11-22T12:34:39;9.00;;;4.65;;
83695;SDS011;73677;54.530;18.484;2023-11-22T12:37:10;10.35;;;5.47;;
83695;SDS011;73677;54.530;18.484;2023-11-22T12:39:46;23.67;;;11.77;;
83695;SDS011;73677;54.530;18.484;2023-11-22T12:42:16;19.00;;;8.30;;
83695;SDS011;73677;54.530;18.484;2023-11-22T12:44:48;18.08;;;7.38;;
83695;SDS011;73677;54.530;18.484;2023-11-22T12:47:31;17.95;;;9.40;;
83695;SDS011;73677;54.530;18.484;2023-11-22T12:50:04;15.15;;;8.10;;
83695;SDS011;73677;54.530;18.484;2023-11-22T12:52:36;14.25;;;6.47;;
83695;SDS011;73677;54.530;18.484;2023-11-22T12:55:06;14.52;;;7.55;;
83695;SDS011;73677;54.530;18.484;2023-11-22T12:57:36;16.83;;;7.28;;
83695;SDS011;73677;54.530;18.484;2023-11-22T13:00:07;9.13;;;5.50;;
83695;SDS011;73677;54.530;18.484;2023-11-22T13:02:41;10.77;;;6.32;;
83695;SDS011;73677;54.530;18.484;2023-11-22T13:05:26;12.00;;;6.32;;
83695;SDS011;73677;54.530;18.484;2023-11-22T13:07:57;11.20;;;6.20;;
83695;SDS011;73677;54.530;18.484;2023-11-22T13:10:28;9.90;;;5.40;;
83695;SDS011;73677;54.530;18.484;2023-11-22T13:13:01;8.57;;;5.75;;
83695;SDS011;73677;54.530;18.484;2023-11-22T13:15:42;10.57;;;5.35;;
83695;SDS011;73677;54.530;18.484;2023-11-22T13:18:16;14.00;;;6.28;;
83695;SDS011;73677;54.530;18.484;2023-11-22T13:20:46;11.27;;;5.63;;
83695;SDS011;73677;54.530;18.484;2023-11-22T13:23:20;15.23;;;6.38;;
83695;SDS011;73677;54.530;18.484;2023-11-22T13:26:21;10.13;;;5.72;;
83695;SDS011;73677;54.530;18.484;2023-11-22T13:28:51;10.88;;;5.25;;
83695;SDS011;73677;54.530;18.484;2023-11-22T13:31:25;8.30;;;5.50;;
83695;SDS011;73677;54.530;18.484;2023-11-22T13:33:57;17.40;;;5.88;;
83695;SDS011;73677;54.530;18.484;2023-11-22T13:36:31;11.88;;;6.40;;
83695;SDS011;73677;54.530;18.484;2023-11-22T13:39:05;13.70;;;6.80;;
83695;SDS011;73677;54.530;18.484;2023-11-22T13:41:35;13.57;;;5.90;;
83695;SDS011;73677;54.530;18.484;2023-11-22T13:46:40;10.88;;;5.95;;
83695;SDS011;73677;54.530;18.484;2023-11-22T13:49:11;13.50;;;5.63;;
83695;SDS011;73677;54.530;18.484;2023-11-22T13:51:43;8.27;;;4.53;;
83695;SDS011;73677;54.530;18.484;2023-11-22T13:54:13;18.17;;;5.80;;
83695;SDS011;73677;54.530;18.484;2023-11-22T13:56:44;22.25;;;9.68;;
83695;SDS011;73677;54.530;18.484;2023-11-22T13:59:14;12.45;;;6.68;;
83695;SDS011;73677;54.530;18.484;2023-11-22T14:01:52;20.52;;;8.32;;
83695;SDS011;73677;54.530;18.484;2023-11-22T14:04:33;34.70;;;11.52;;
83695;SDS011;73677;54.530;18.484;2023-11-22T14:07:23;36.80;;;11.80;;
83695;SDS011;73677;54.530;18.484;2023-11-22T14:10:07;30.00;;;9.90;;
83695;SDS011;73677;54.530;18.484;2023-11-22T14:12:48;35.20;;;12.82;;
83695;SDS011;73677;54.530;18.484;2023-11-22T14:18:30;26.58;;;12.35;;
83695;SDS011;73677;54.530;18.484;2023-11-22T14:21:31;24.23;;;11.35;;
83695;SDS011;73677;54.530;18.484;2023-11-22T14:24:03;19.75;;;10.38;;
83695;SDS011;73677;54.530;18.484;2023-11-22T14:26:51;24.27;;;9.77;;
83695;SDS011;73677;54.530;18.484;2023-11-22T14:29:39;18.40;;;8.85;;
83695;SDS011;73677;54.530;18.484;2023-11-22T14:32:42;16.42;;;7.28;;
83695;SDS011;73677;54.530;18.484;2023-11-22T14:35:33;18.02;;;6.80;;
83695;SDS011;73677;54.530;18.484;2023-11-22T14:38:04;19.40;;;8.63;;
83695;SDS011;73677;54.530;18.484;2023-11-22T14:43:07;18.83;;;8.70;;
83695;SDS011;73677;54.530;18.484;2023-11-22T14:45:40;17.58;;;8.20;;
83695;SDS011;73677;54.530;18.484;2023-11-22T14:48:11;20.83;;;9.38;;
83695;SDS011;73677;54.530;18.484;2023-11-22T14:50:44;25.45;;;9.88;;
83695;SDS011;73677;54.530;18.484;2023-11-22T14:53:16;31.00;;;12.85;;
83695;SDS011;73677;54.530;18.484;2023-11-22T14:55:46;30.13;;;12.80;;
83695;SDS011;73677;54.530;18.484;2023-11-22T14:58:17;31.77;;;14.25;;
83695;SDS011;73677;54.530;18.484;2023-11-22T15:00:46;27.23;;;12.57;;
83695;SDS011;73677;54.530;18.484;2023-11-22T15:03:19;23.30;;;10.38;;
83695;SDS011;73677;54.530;18.484;2023-11-22T15:06:07;22.75;;;11.52;;
83695;SDS011;73677;54.530;18.484;2023-11-22T15:08:54;24.25;;;10.88;;
83695;SDS011;73677;54.530;18.484;2023-11-22T15:11:28;27.27;;;12.10;;
83695;SDS011;73677;54.530;18.484;2023-11-22T15:14:17;19.55;;;9.93;;
83695;SDS011;73677;54.530;18.484;2023-11-22T15:16:51;16.08;;;7.05;;
83695;SDS011;73677;54.530;18.484;2023-11-22T15:19:27;19.80;;;9.18;;
83695;SDS011;73677;54.530;18.484;2023-11-22T15:22:02;14.35;;;7.35;;
83695;SDS011;73677;54.530;18.484;2023-11-22T15:24:32;24.30;;;12.10;;
83695;SDS011;73677;54.530;18.484;2023-11-22T15:27:26;14.75;;;8.00;;
83695;SDS011;73677;54.530;18.484;2023-11-22T15:30:19;20.38;;;9.20;;